sensor_id;sensor_type;location;lat;lon;timestamp;pressure;altitude;pressure_sealevel;temperature;humidity
55079;BME280;55187;49.496;6.010;2023-01-29T00:00:04;98628.41;;;-3.35;100.00
55079;BME280;55187;49.496;6.010;2023-01-29T00:02:38;98629.94;;;-3.31;100.00
55079;BME280;55187;49.496;6.010;2023-01-29T00:05:05;98621.47;;;-3.34;100.00
55079;BME280;55187;49.496;6.010;2023-01-29T00:07:33;98619.44;;;-3.10;100.00
55079;BME280;55187;49.496;6.010;2023-01-29T00:09:59;98625.38;;;-3.08;100.00
55079;BME280;55187;49.496;6.010;2023-01-29T00:12:26;98623.31;;;-3.02;100.00
55079;BME280;55187;49.496;6.010;2023-01-29T00:14:52;98627.06;;;-3.07;100.00
55079;BME280;55187;49.496;6.010;2023-01-29T00:17:20;98629.00;;;-3.30;100.00
55079;BME280;55187;49.496;6.010;2023-01-29T00:19:46;98637.53;;;-3.28;100.00
55079;BME280;55187;49.496;6.010;2023-01-29T00:22:13;98633.28;;;-3.11;100.00
55079;BME280;55187;49.496;6.010;2023-01-29T00:24:39;98631.38;;;-3.25;100.00
55079;BME280;55187;49.496;6.010;2023-01-29T00:27:05;98634.19;;;-3.30;100.00
55079;BME280;55187;49.496;6.010;2023-01-29T00:29:32;98632.22;;;-3.25;100.00
55079;BME280;55187;49.496;6.010;2023-01-29T00:31:58;98639.59;;;-3.34;100.00
55079;BME280;55187;49.496;6.010;2023-01-29T00:34:26;98624.72;;;-3.48;100.00
55079;BME280;55187;49.496;6.010;2023-01-29T00:36:52;98641.63;;;-3.41;100.00
55079;BME280;55187;49.496;6.010;2023-01-29T00:39:30;98634.69;;;-3.41;100.00
55079;BME280;55187;49.496;6.010;2023-01-29T00:42:05;98640.03;;;-3.44;100.00
55079;BME280;55187;49.496;6.010;2023-01-29T00:44:50;98656.31;;;-3.42;100.00
55079;BME280;55187;49.496;6.010;2023-01-29T00:47:22;98639.97;;;-3.42;100.00
55079;BME280;55187;49.496;6.010;2023-01-29T00:50:10;98623.75;;;-3.46;100.00
55079;BME280;55187;49.496;6.010;2023-01-29T00:52:37;98635.13;;;-3.31;100.00
55079;BME280;55187;49.496;6.010;2023-01-29T00:55:06;98638.81;;;-3.37;100.00
55079;BME280;55187;49.496;6.010;2023-01-29T00:57:35;98640.78;;;-3.42;100.00
55079;BME280;55187;49.496;6.010;2023-01-29T01:00:08;98635.34;;;-3.18;100.00
55079;BME280;55187;49.496;6.010;2023-01-29T01:02:35;98638.41;;;-3.10;100.00
55079;BME280;55187;49.496;6.010;2023-01-29T01:05:20;98634.22;;;-3.12;100.00
55079;BME280;55187;49.496;6.010;2023-01-29T01:07:49;98636.56;;;-3.25;100.00
55079;BME280;55187;49.496;6.010;2023-01-29T01:10:18;98640.22;;;-3.12;100.00
55079;BME280;55187;49.496;6.010;2023-01-29T01:12:53;98627.91;;;-3.24;100.00
55079;BME280;55187;49.496;6.010;2023-01-29T01:15:22;98639.44;;;-3.31;100.00
55079;BME280;55187;49.496;6.010;2023-01-29T01:17:56;98639.19;;;-3.44;100.00
55079;BME280;55187;49.496;6.010;2023-01-29T01:20:24;98630.94;;;-3.52;100.00
55079;BME280;55187;49.496;6.010;2023-01-29T01:22:52;98629.31;;;-3.36;100.00
55079;BME280;55187;49.496;6.010;2023-01-29T01:25:20;98612.00;;;-3.53;100.00
55079;BME280;55187;49.496;6.010;2023-01-29T01:27:51;98617.28;;;-3.37;100.00
55079;BME280;55187;49.496;6.010;2023-01-29T01:30:18;98618.81;;;-3.33;100.00
55079;BME280;55187;49.496;6.010;2023-01-29T01:32:45;98619.56;;;-3.48;100.00
55079;BME280;55187;49.496;6.010;2023-01-29T01:36:07;98623.22;;;-3.35;100.00
55079;BME280;55187;49.496;6.010;2023-01-29T01:38:36;98623.84;;;-3.30;100.00
55079;BME280;55187;49.496;6.010;2023-01-29T01:41:11;98619.84;;;-3.54;100.00
55079;BME280;55187;49.496;6.010;2023-01-29T01:43:57;98623.06;;;-3.49;100.00
55079;BME280;55187;49.496;6.010;2023-01-29T01:46:25;98628.91;;;-3.63;100.00
55079;BME280;55187;49.496;6.010;2023-01-29T01:48:56;98613.25;;;-3.43;100.00
55079;BME280;55187;49.496;6.010;2023-01-29T01:51:27;98621.16;;;-3.46;100.00
55079;BME280;55187;49.496;6.010;2023-01-29T01:54:03;98612.28;;;-3.40;100.00
55079;BME280;55187;49.496;6.010;2023-01-29T01:56:35;98614.38;;;-3.48;100.00
55079;BME280;55187;49.496;6.010;2023-01-29T01:59:12;98608.81;;;-3.58;100.00
55079;BME280;55187;49.496;6.010;2023-01-29T02:01:42;98596.94;;;-3.62;100.00
55079;BME280;55187;49.496;6.010;2023-01-29T02:04:12;98593.25;;;-3.75;100.00
55079;BME280;55187;49.496;6.010;2023-01-29T02:07:02;98591.53;;;-3.75;100.00
55079;BME280;55187;49.496;6.010;2023-01-29T02:10:07;98588.22;;;-3.78;100.00
55079;BME280;55187;49.496;6.010;2023-01-29T02:12:36;98589.22;;;-3.81;100.00
55079;BME280;55187;49.496;6.010;2023-01-29T02:15:03;98584.25;;;-3.49;100.00
55079;BME280;55187;49.496;6.010;2023-01-29T02:17:31;98568.84;;;-3.70;100.00
55079;BME280;55187;49.496;6.010;2023-01-29T02:20:23;98589.16;;;-3.80;100.00
55079;BME280;55187;49.496;6.010;2023-01-29T02:37:17;98605.44;;;-3.96;100.00
55079;BME280;55187;49.496;6.010;2023-01-29T02:40:04;98605.38;;;-4.14;100.00
55079;BME280;55187;49.496;6.010;2023-01-29T02:42:39;98608.59;;;-4.09;100.00
55079;BME280;55187;49.496;6.010;2023-01-29T02:45:13;98615.41;;;-4.08;100.00
55079;BME280;55187;49.496;6.010;2023-01-29T02:47:59;98614.66;;;-4.10;100.00
55079;BME280;55187;49.496;6.010;2023-01-29T02:54:10;98616.47;;;-4.12;100.00
55079;BME280;55187;49.496;6.010;2023-01-29T02:57:03;98613.41;;;-4.01;100.00
55079;BME280;55187;49.496;6.010;2023-01-29T02:59:44;98607.81;;;-3.92;100.00
55079;BME280;55187;49.496;6.010;2023-01-29T03:02:16;98605.91;;;-3.69;100.00
55079;BME280;55187;49.496;6.010;2023-01-29T03:04:50;98598.19;;;-3.71;100.00
55079;BME280;55187;49.496;6.010;2023-01-29T03:07:24;98588.56;;;-3.67;100.00
55079;BME280;55187;49.496;6.010;2023-01-29T03:10:39;98595.66;;;-3.90;100.00
55079;BME280;55187;49.496;6.010;2023-01-29T03:13:17;98594.03;;;-3.92;100.00
55079;BME280;55187;49.496;6.010;2023-01-29T03:15:52;98592.66;;;-3.99;100.00
55079;BME280;55187;49.496;6.010;2023-01-29T03:18:40;98598.44;;;-3.94;100.00
55079;BME280;55187;49.496;6.010;2023-01-29T03:21:18;98596.47;;;-3.89;100.00
55079;BME280;55187;49.496;6.010;2023-01-29T03:24:05;98588.50;;;-3.85;100.00
55079;BME280;55187;49.496;6.010;2023-01-29T03:26:53;98595.91;;;-3.96;100.00
55079;BME280;55187;49.496;6.010;2023-01-29T03:29:44;98596.19;;;-3.83;100.00
55079;BME280;55187;49.496;6.010;2023-01-29T03:32:48;98598.78;;;-3.83;100.00
55079;BME280;55187;49.496;6.010;2023-01-29T03:38:16;98594.53;;;-3.84;100.00
55079;BME280;55187;49.496;6.010;2023-01-29T03:40:53;98589.22;;;-3.81;100.00
55079;BME280;55187;49.496;6.010;2023-01-29T03:43:28;98591.78;;;-3.81;100.00
55079;BME280;55187;49.496;6.010;2023-01-29T03:46:06;98597.00;;;-4.00;100.00
55079;BME280;55187;49.496;6.010;2023-01-29T03:48:40;98594.03;;;-3.92;100.00
55079;BME280;55187;49.496;6.010;2023-01-29T03:54:15;98620.88;;;-3.95;100.00
55079;BME280;55187;49.496;6.010;2023-01-29T03:57:00;98610.38;;;-3.92;100.00
55079;BME280;55187;49.496;6.010;2023-01-29T03:59:47;98610.78;;;-3.63;100.00
55079;BME280;55187;49.496;6.010;2023-01-29T04:02:54;98612.50;;;-3.64;100.00
55079;BME280;55187;49.496;6.010;2023-01-29T04:05:28;98610.22;;;-3.70;100.00
55079;BME280;55187;49.496;6.010;2023-01-29T04:08:24;98605.38;;;-3.95;100.00
55079;BME280;55187;49.496;6.010;2023-01-29T04:10:55;98602.22;;;-4.02;100.00
55079;BME280;55187;49.496;6.010;2023-01-29T04:13:25;98606.34;;;-4.16;100.00
55079;BME280;55187;49.496;6.010;2023-01-29T04:15:56;98616.34;;;-4.09;100.00
55079;BME280;55187;49.496;6.010;2023-01-29T04:18:52;98599.09;;;-4.08;100.00
55079;BME280;55187;49.496;6.010;2023-01-29T04:21:26;98604.41;;;-4.11;100.00
55079;BME280;55187;49.496;6.010;2023-01-29T04:23:53;98606.63;;;-4.04;100.00
55079;BME280;55187;49.496;6.010;2023-01-29T04:29:30;98605.63;;;-3.82;100.00
55079;BME280;55187;49.496;6.010;2023-01-29T04:32:14;98610.72;;;-3.81;100.00
55079;BME280;55187;49.496;6.010;2023-01-29T04:41:07;98610.78;;;-3.82;100.00
55079;BME280;55187;49.496;6.010;2023-01-29T04:43:55;98602.50;;;-4.08;100.00
55079;BME280;55187;49.496;6.010;2023-01-29T04:56:46;98598.47;;;-4.32;100.00
55079;BME280;55187;49.496;6.010;2023-01-29T04:59:20;98602.78;;;-4.33;100.00
55079;BME280;55187;49.496;6.010;2023-01-29T05:01:48;98592.88;;;-4.23;100.00
55079;BME280;55187;49.496;6.010;2023-01-29T05:04:17;98591.53;;;-4.13;100.00
55079;BME280;55187;49.496;6.010;2023-01-29T05:06:46;98595.78;;;-4.12;100.00
55079;BME280;55187;49.496;6.010;2023-01-29T05:09:14;98593.00;;;-4.26;100.00
55079;BME280;55187;49.496;6.010;2023-01-29T05:11:44;98602.19;;;-4.39;100.00
55079;BME280;55187;49.496;6.010;2023-01-29T05:14:12;98598.94;;;-4.43;100.00
55079;BME280;55187;49.496;6.010;2023-01-29T05:16:43;98596.19;;;-4.21;100.00
55079;BME280;55187;49.496;6.010;2023-01-29T05:19:13;98601.72;;;-4.10;100.00
55079;BME280;55187;49.496;6.010;2023-01-29T05:21:43;98592.31;;;-4.11;100.00
55079;BME280;55187;49.496;6.010;2023-01-29T05:26:43;98574.38;;;-4.14;100.00
55079;BME280;55187;49.496;6.010;2023-01-29T05:29:30;98568.69;;;-4.22;100.00
55079;BME280;55187;49.496;6.010;2023-01-29T05:31:56;98574.13;;;-4.28;100.00
55079;BME280;55187;49.496;6.010;2023-01-29T05:34:26;98581.06;;;-4.48;100.00
55079;BME280;55187;49.496;6.010;2023-01-29T05:36:53;98588.28;;;-4.56;100.00
55079;BME280;55187;49.496;6.010;2023-01-29T05:39:19;98591.84;;;-4.58;100.00
55079;BME280;55187;49.496;6.010;2023-01-29T05:41:46;98589.59;;;-4.27;100.00
55079;BME280;55187;49.496;6.010;2023-01-29T05:44:12;98588.66;;;-4.45;100.00
55079;BME280;55187;49.496;6.010;2023-01-29T05:46:39;98580.69;;;-4.40;100.00
55079;BME280;55187;49.496;6.010;2023-01-29T05:49:05;98580.28;;;-4.50;100.00
55079;BME280;55187;49.496;6.010;2023-01-29T05:51:32;98580.78;;;-4.41;100.00
55079;BME280;55187;49.496;6.010;2023-01-29T05:53:58;98566.44;;;-4.49;100.00
55079;BME280;55187;49.496;6.010;2023-01-29T05:56:24;98579.78;;;-4.58;100.00
55079;BME280;55187;49.496;6.010;2023-01-29T05:58:51;98584.25;;;-4.61;100.00
55079;BME280;55187;49.496;6.010;2023-01-29T06:01:20;98595.78;;;-4.50;100.00
55079;BME280;55187;49.496;6.010;2023-01-29T06:03:47;98600.94;;;-4.50;100.00
55079;BME280;55187;49.496;6.010;2023-01-29T06:06:14;98605.41;;;-4.53;100.00
55079;BME280;55187;49.496;6.010;2023-01-29T06:08:40;98598.47;;;-4.32;100.00
55079;BME280;55187;49.496;6.010;2023-01-29T06:11:09;98596.34;;;-4.24;100.00
55079;BME280;55187;49.496;6.010;2023-01-29T06:13:36;98600.41;;;-4.37;100.00
55079;BME280;55187;49.496;6.010;2023-01-29T06:16:09;98595.16;;;-4.55;100.00
55079;BME280;55187;49.496;6.010;2023-01-29T06:18:37;98610.50;;;-4.52;100.00
55079;BME280;55187;49.496;6.010;2023-01-29T06:21:06;98621.81;;;-4.54;100.00
55079;BME280;55187;49.496;6.010;2023-01-29T06:23:33;98622.38;;;-4.48;100.00
55079;BME280;55187;49.496;6.010;2023-01-29T06:26:04;98620.84;;;-4.52;100.00
55079;BME280;55187;49.496;6.010;2023-01-29T06:28:30;98607.28;;;-4.57;100.00
55079;BME280;55187;49.496;6.010;2023-01-29T06:31:00;98603.41;;;-4.67;100.00
55079;BME280;55187;49.496;6.010;2023-01-29T06:33:27;98607.31;;;-4.38;100.00
55079;BME280;55187;49.496;6.010;2023-01-29T06:39:09;98592.84;;;-4.61;100.00
55079;BME280;55187;49.496;6.010;2023-01-29T06:41:36;98589.41;;;-4.61;100.00
55079;BME280;55187;49.496;6.010;2023-01-29T06:44:02;98588.78;;;-4.67;100.00
55079;BME280;55187;49.496;6.010;2023-01-29T06:46:29;98578.34;;;-4.84;100.00
55079;BME280;55187;49.496;6.010;2023-01-29T06:48:59;98583.56;;;-4.86;100.00
55079;BME280;55187;49.496;6.010;2023-01-29T06:51:25;98588.66;;;-4.84;100.00
55079;BME280;55187;49.496;6.010;2023-01-29T06:53:52;98598.34;;;-4.89;100.00
55079;BME280;55187;49.496;6.010;2023-01-29T06:56:21;98602.81;;;-4.93;100.00
55079;BME280;55187;49.496;6.010;2023-01-29T06:58:48;98599.78;;;-5.02;100.00
55079;BME280;55187;49.496;6.010;2023-01-29T07:01:15;98601.53;;;-5.03;100.00
55079;BME280;55187;49.496;6.010;2023-01-29T07:03:42;98587.31;;;-5.13;100.00
55079;BME280;55187;49.496;6.010;2023-01-29T07:06:09;98607.66;;;-5.06;100.00
55079;BME280;55187;49.496;6.010;2023-01-29T07:08:37;98598.22;;;-5.07;100.00
55079;BME280;55187;49.496;6.010;2023-01-29T07:11:04;98603.56;;;-5.11;100.00
55079;BME280;55187;49.496;6.010;2023-01-29T07:13:31;98599.94;;;-4.66;100.00
55079;BME280;55187;49.496;6.010;2023-01-29T07:15:59;98597.63;;;-4.72;100.00
55079;BME280;55187;49.496;6.010;2023-01-29T07:18:26;98592.28;;;-4.88;100.00
55079;BME280;55187;49.496;6.010;2023-01-29T07:20:53;98599.81;;;-4.63;100.00
55079;BME280;55187;49.496;6.010;2023-01-29T07:23:20;98588.47;;;-4.79;100.00
55079;BME280;55187;49.496;6.010;2023-01-29T07:25:47;98598.78;;;-4.59;100.00
55079;BME280;55187;49.496;6.010;2023-01-29T07:28:16;98597.50;;;-4.69;100.00
55079;BME280;55187;49.496;6.010;2023-01-29T07:30:44;98602.47;;;-4.65;100.00
55079;BME280;55187;49.496;6.010;2023-01-29T07:33:10;98609.84;;;-4.76;100.00
55079;BME280;55187;49.496;6.010;2023-01-29T07:35:38;98597.03;;;-4.58;100.00
55079;BME280;55187;49.496;6.010;2023-01-29T07:38:07;98602.53;;;-4.66;100.00
55079;BME280;55187;49.496;6.010;2023-01-29T07:40:33;98608.50;;;-4.85;100.00
55079;BME280;55187;49.496;6.010;2023-01-29T07:43:01;98614.19;;;-4.97;100.00
55079;BME280;55187;49.496;6.010;2023-01-29T07:45:29;98612.94;;;-5.09;100.00
55079;BME280;55187;49.496;6.010;2023-01-29T07:47:56;98617.44;;;-5.14;100.00
55079;BME280;55187;49.496;6.010;2023-01-29T07:50:24;98604.94;;;-5.02;100.00
55079;BME280;55187;49.496;6.010;2023-01-29T07:52:53;98616.69;;;-4.95;100.00
55079;BME280;55187;49.496;6.010;2023-01-29T07:55:19;98626.16;;;-4.96;100.00
55079;BME280;55187;49.496;6.010;2023-01-29T07:57:46;98631.91;;;-4.89;100.00
55079;BME280;55187;49.496;6.010;2023-01-29T08:00:14;98637.09;;;-4.89;100.00
55079;BME280;55187;49.496;6.010;2023-01-29T08:02:40;98646.25;;;-4.82;100.00
55079;BME280;55187;49.496;6.010;2023-01-29T08:05:07;98644.09;;;-4.93;100.00
55079;BME280;55187;49.496;6.010;2023-01-29T08:07:34;98640.00;;;-4.97;100.00
55079;BME280;55187;49.496;6.010;2023-01-29T08:10:00;98648.19;;;-4.87;100.00
55079;BME280;55187;49.496;6.010;2023-01-29T08:12:27;98666.69;;;-4.77;100.00
55079;BME280;55187;49.496;6.010;2023-01-29T08:14:53;98663.41;;;-4.81;100.00
55079;BME280;55187;49.496;6.010;2023-01-29T08:17:20;98663.34;;;-4.79;100.00
55079;BME280;55187;49.496;6.010;2023-01-29T08:19:46;98665.97;;;-4.81;100.00
55079;BME280;55187;49.496;6.010;2023-01-29T08:22:12;98667.53;;;-4.77;100.00
55079;BME280;55187;49.496;6.010;2023-01-29T08:24:42;98653.78;;;-4.77;100.00
55079;BME280;55187;49.496;6.010;2023-01-29T08:27:08;98653.25;;;-4.65;100.00
55079;BME280;55187;49.496;6.010;2023-01-29T08:29:35;98646.56;;;-4.69;100.00
55079;BME280;55187;49.496;6.010;2023-01-29T08:32:01;98640.34;;;-4.65;100.00
55079;BME280;55187;49.496;6.010;2023-01-29T08:34:27;98625.81;;;-4.28;100.00
55079;BME280;55187;49.496;6.010;2023-01-29T08:39:59;98622.34;;;-4.08;100.00
55079;BME280;55187;49.496;6.010;2023-01-29T08:42:26;98621.50;;;-4.28;100.00
55079;BME280;55187;49.496;6.010;2023-01-29T08:44:52;98624.34;;;-3.96;100.00
55079;BME280;55187;49.496;6.010;2023-01-29T08:47:19;98643.53;;;-4.00;100.00
55079;BME280;55187;49.496;6.010;2023-01-29T08:49:45;98640.09;;;-4.19;100.00
55079;BME280;55187;49.496;6.010;2023-01-29T08:52:12;98634.44;;;-3.90;100.00
55079;BME280;55187;49.496;6.010;2023-01-29T08:54:39;98639.50;;;-3.69;100.00
55079;BME280;55187;49.496;6.010;2023-01-29T08:57:05;98642.44;;;-3.58;100.00
55079;BME280;55187;49.496;6.010;2023-01-29T08:59:32;98644.91;;;-3.38;100.00
55079;BME280;55187;49.496;6.010;2023-01-29T09:01:58;98646.59;;;-3.37;100.00
55079;BME280;55187;49.496;6.010;2023-01-29T09:04:25;98645.00;;;-3.39;100.00
55079;BME280;55187;49.496;6.010;2023-01-29T09:06:51;98636.34;;;-3.21;100.00
55079;BME280;55187;49.496;6.010;2023-01-29T09:09:18;98631.31;;;-3.24;100.00
55079;BME280;55187;49.496;6.010;2023-01-29T09:11:44;98628.44;;;-3.00;100.00
55079;BME280;55187;49.496;6.010;2023-01-29T09:14:11;98623.34;;;-3.55;100.00
55079;BME280;55187;49.496;6.010;2023-01-29T09:16:39;98624.78;;;-3.67;100.00
55079;BME280;55187;49.496;6.010;2023-01-29T09:19:06;98626.97;;;-3.60;100.00
55079;BME280;55187;49.496;6.010;2023-01-29T09:21:33;98643.13;;;-3.54;100.00
55079;BME280;55187;49.496;6.010;2023-01-29T09:23:59;98647.69;;;-3.78;100.00
55079;BME280;55187;49.496;6.010;2023-01-29T09:26:26;98643.50;;;-3.62;100.00
55079;BME280;55187;49.496;6.010;2023-01-29T09:28:52;98642.28;;;-3.55;100.00
55079;BME280;55187;49.496;6.010;2023-01-29T09:31:18;98644.72;;;-2.98;100.00
55079;BME280;55187;49.496;6.010;2023-01-29T09:33:45;98639.53;;;-2.81;100.00
55079;BME280;55187;49.496;6.010;2023-01-29T09:36:11;98643.91;;;-2.99;100.00
55079;BME280;55187;49.496;6.010;2023-01-29T09:43:38;98669.38;;;-3.08;100.00
55079;BME280;55187;49.496;6.010;2023-01-29T09:46:33;98663.16;;;-3.04;100.00
55079;BME280;55187;49.496;6.010;2023-01-29T09:49:07;98657.53;;;-2.78;100.00
55079;BME280;55187;49.496;6.010;2023-01-29T09:51:48;98656.84;;;-2.99;100.00
55079;BME280;55187;49.496;6.010;2023-01-29T09:57:06;98669.84;;;-2.65;100.00
55079;BME280;55187;49.496;6.010;2023-01-29T09:59:36;98661.59;;;-2.39;100.00
55079;BME280;55187;49.496;6.010;2023-01-29T10:02:10;98657.06;;;-2.68;100.00
55079;BME280;55187;49.496;6.010;2023-01-29T10:26:30;98632.00;;;-2.35;98.37
55079;BME280;55187;49.496;6.010;2023-01-29T10:29:00;98633.50;;;-2.30;98.68
55079;BME280;55187;49.496;6.010;2023-01-29T10:31:32;98619.25;;;-2.55;99.22
55079;BME280;55187;49.496;6.010;2023-01-29T10:34:35;98621.13;;;-2.41;98.92
55079;BME280;55187;49.496;6.010;2023-01-29T10:37:00;98612.25;;;-2.37;99.21
55079;BME280;55187;49.496;6.010;2023-01-29T10:39:35;98620.34;;;-1.94;98.38
55079;BME280;55187;49.496;6.010;2023-01-29T10:42:33;98624.00;;;-1.98;97.41
55079;BME280;55187;49.496;6.010;2023-01-29T10:47:51;98616.84;;;-2.09;98.35
55079;BME280;55187;49.496;6.010;2023-01-29T10:50:38;98604.69;;;-2.08;97.80
55079;BME280;55187;49.496;6.010;2023-01-29T10:58:35;98578.19;;;-2.14;95.85
55079;BME280;55187;49.496;6.010;2023-01-29T11:01:03;98581.03;;;-2.51;97.42
55079;BME280;55187;49.496;6.010;2023-01-29T11:03:32;98574.09;;;-2.02;97.28
55079;BME280;55187;49.496;6.010;2023-01-29T11:11:37;98567.34;;;-1.58;94.29
55079;BME280;55187;49.496;6.010;2023-01-29T11:14:08;98558.50;;;-1.70;95.84
55079;BME280;55187;49.496;6.010;2023-01-29T11:16:43;98542.66;;;-1.05;93.52
55079;BME280;55187;49.496;6.010;2023-01-29T11:19:10;98558.09;;;-1.18;92.13
55079;BME280;55187;49.496;6.010;2023-01-29T11:21:56;98556.31;;;-1.32;91.91
55079;BME280;55187;49.496;6.010;2023-01-29T11:24:27;98554.75;;;-1.50;92.36
55079;BME280;55187;49.496;6.010;2023-01-29T11:26:55;98543.69;;;-0.93;91.75
55079;BME280;55187;49.496;6.010;2023-01-29T11:29:37;98543.59;;;-0.77;90.30
55079;BME280;55187;49.496;6.010;2023-01-29T11:32:23;98539.56;;;-1.12;90.30
55079;BME280;55187;49.496;6.010;2023-01-29T11:35:03;98539.38;;;-1.53;91.29
55079;BME280;55187;49.496;6.010;2023-01-29T11:37:36;98533.09;;;-1.04;91.86
55079;BME280;55187;49.496;6.010;2023-01-29T16:42:35;98367.03;;;-4.38;100.00
55079;BME280;55187;49.496;6.010;2023-01-29T16:45:27;98369.47;;;-4.35;100.00
55079;BME280;55187;49.496;6.010;2023-01-29T16:48:27;98379.53;;;-4.46;100.00
55079;BME280;55187;49.496;6.010;2023-01-29T16:51:13;98378.09;;;-4.34;100.00
55079;BME280;55187;49.496;6.010;2023-01-29T16:53:51;98379.19;;;-4.40;100.00
55079;BME280;55187;49.496;6.010;2023-01-29T16:56:20;98389.75;;;-4.45;100.00
55079;BME280;55187;49.496;6.010;2023-01-29T16:58:50;98387.75;;;-4.57;100.00
55079;BME280;55187;49.496;6.010;2023-01-29T17:01:17;98390.72;;;-4.65;100.00
55079;BME280;55187;49.496;6.010;2023-01-29T17:03:55;98386.56;;;-4.50;100.00
55079;BME280;55187;49.496;6.010;2023-01-29T17:06:25;98388.53;;;-4.37;100.00
55079;BME280;55187;49.496;6.010;2023-01-29T17:08:52;98399.97;;;-4.24;100.00
55079;BME280;55187;49.496;6.010;2023-01-29T17:13:54;98397.38;;;-4.24;100.00
55079;BME280;55187;49.496;6.010;2023-01-29T17:16:31;98405.06;;;-4.23;100.00
55079;BME280;55187;49.496;6.010;2023-01-29T17:18:58;98407.81;;;-4.08;100.00
55079;BME280;55187;49.496;6.010;2023-01-29T17:21:25;98406.75;;;-4.04;100.00
55079;BME280;55187;49.496;6.010;2023-01-29T17:23:52;98407.44;;;-3.66;100.00
55079;BME280;55187;49.496;6.010;2023-01-29T17:26:20;98406.97;;;-3.56;100.00
55079;BME280;55187;49.496;6.010;2023-01-29T17:28:49;98400.28;;;-3.61;100.00
55079;BME280;55187;49.496;6.010;2023-01-29T17:31:16;98401.31;;;-3.47;100.00
55079;BME280;55187;49.496;6.010;2023-01-29T17:33:43;98390.75;;;-3.27;100.00
55079;BME280;55187;49.496;6.010;2023-01-29T17:36:15;98394.22;;;-3.10;100.00
55079;BME280;55187;49.496;6.010;2023-01-29T17:38:42;98393.97;;;-2.90;100.00
55079;BME280;55187;49.496;6.010;2023-01-29T17:41:24;98394.13;;;-2.93;100.00
55079;BME280;55187;49.496;6.010;2023-01-29T17:43:52;98399.00;;;-2.87;100.00
55079;BME280;55187;49.496;6.010;2023-01-29T17:46:19;98390.81;;;-2.79;100.00
55079;BME280;55187;49.496;6.010;2023-01-29T17:48:46;98387.06;;;-2.73;100.00
55079;BME280;55187;49.496;6.010;2023-01-29T17:51:16;98382.84;;;-2.60;100.00
55079;BME280;55187;49.496;6.010;2023-01-29T17:53:43;98384.59;;;-2.61;100.00
55079;BME280;55187;49.496;6.010;2023-01-29T17:56:17;98388.28;;;-2.65;100.00
55079;BME280;55187;49.496;6.010;2023-01-29T17:58:46;98385.13;;;-2.70;100.00
55079;BME280;55187;49.496;6.010;2023-01-29T18:01:12;98383.09;;;-2.65;100.00
55079;BME280;55187;49.496;6.010;2023-01-29T18:03:39;98382.84;;;-2.60;100.00
55079;BME280;55187;49.496;6.010;2023-01-29T18:06:07;98388.22;;;-2.63;100.00
55079;BME280;55187;49.496;6.010;2023-01-29T18:08:35;98384.47;;;-2.58;100.00
55079;BME280;55187;49.496;6.010;2023-01-29T18:11:04;98386.31;;;-2.60;100.00
55079;BME280;55187;49.496;6.010;2023-01-29T18:13:31;98385.81;;;-2.66;100.00
55079;BME280;55187;49.496;6.010;2023-01-29T18:15:57;98388.97;;;-2.61;100.00
55079;BME280;55187;49.496;6.010;2023-01-29T18:18:23;98389.03;;;-2.63;100.00
55079;BME280;55187;49.496;6.010;2023-01-29T18:20:50;98382.53;;;-2.70;100.00
55079;BME280;55187;49.496;6.010;2023-01-29T18:23:16;98381.00;;;-2.58;100.00
55079;BME280;55187;49.496;6.010;2023-01-29T18:25:44;98385.03;;;-2.68;100.00
55079;BME280;55187;49.496;6.010;2023-01-29T18:28:15;98389.78;;;-2.61;100.00
55079;BME280;55187;49.496;6.010;2023-01-29T18:30:46;98383.09;;;-2.65;100.00
55079;BME280;55187;49.496;6.010;2023-01-29T18:33:13;98392.81;;;-2.68;100.00
55079;BME280;55187;49.496;6.010;2023-01-29T18:35:39;98389.28;;;-2.67;100.00
55079;BME280;55187;49.496;6.010;2023-01-29T18:38:06;98390.72;;;-2.78;100.00
55079;BME280;55187;49.496;6.010;2023-01-29T18:40:32;98398.81;;;-2.84;100.00
55079;BME280;55187;49.496;6.010;2023-01-29T18:42:58;98399.75;;;-2.85;100.00
55079;BME280;55187;49.496;6.010;2023-01-29T18:45:27;98388.31;;;-2.97;100.00
55079;BME280;55187;49.496;6.010;2023-01-29T18:47:54;98375.84;;;-3.06;100.00
55079;BME280;55187;49.496;6.010;2023-01-29T18:50:20;98375.84;;;-3.22;100.00
55079;BME280;55187;49.496;6.010;2023-01-29T18:52:52;98373.25;;;-3.22;100.00
55079;BME280;55187;49.496;6.010;2023-01-29T18:55:19;98372.53;;;-3.41;100.00
55079;BME280;55187;49.496;6.010;2023-01-29T18:57:46;98376.91;;;-3.26;100.00
55079;BME280;55187;49.496;6.010;2023-01-29T19:00:13;98354.47;;;-3.09;100.00
55079;BME280;55187;49.496;6.010;2023-01-29T19:02:39;98358.72;;;-2.92;100.00
55079;BME280;55187;49.496;6.010;2023-01-29T19:05:08;98358.13;;;-2.98;100.00
55079;BME280;55187;49.496;6.010;2023-01-29T19:07:34;98347.13;;;-3.01;100.00
55079;BME280;55187;49.496;6.010;2023-01-29T19:10:01;98361.16;;;-3.05;100.00
55079;BME280;55187;49.496;6.010;2023-01-29T19:12:29;98356.56;;;-2.84;100.00
55079;BME280;55187;49.496;6.010;2023-01-29T19:14:56;98359.66;;;-2.78;100.00
55079;BME280;55187;49.496;6.010;2023-01-29T19:17:22;98352.88;;;-2.64;100.00
55079;BME280;55187;49.496;6.010;2023-01-29T19:19:48;98355.84;;;-2.56;100.00
55079;BME280;55187;49.496;6.010;2023-01-29T19:22:16;98361.13;;;-2.58;100.00
55079;BME280;55187;49.496;6.010;2023-01-29T19:24:43;98359.38;;;-2.57;100.00
55079;BME280;55187;49.496;6.010;2023-01-29T19:27:09;98350.97;;;-2.46;100.00
55079;BME280;55187;49.496;6.010;2023-01-29T19:29:36;98357.94;;;-2.47;100.00
55079;BME280;55187;49.496;6.010;2023-01-29T19:32:03;98363.81;;;-2.59;100.00
55079;BME280;55187;49.496;6.010;2023-01-29T19:34:29;98357.94;;;-2.47;100.00
55079;BME280;55187;49.496;6.010;2023-01-29T19:36:56;98352.66;;;-2.45;100.00
55079;BME280;55187;49.496;6.010;2023-01-29T19:39:22;98352.22;;;-2.38;100.00
55079;BME280;55187;49.496;6.010;2023-01-29T20:43:10;98284.69;;;-2.35;100.00
55079;BME280;55187;49.496;6.010;2023-01-29T20:45:38;98282.34;;;-2.39;100.00
55079;BME280;55187;49.496;6.010;2023-01-29T20:48:05;98286.88;;;-2.43;100.00
55079;BME280;55187;49.496;6.010;2023-01-29T20:50:34;98304.75;;;-2.38;100.00
55079;BME280;55187;49.496;6.010;2023-01-29T20:53:00;98305.75;;;-2.41;100.00